Terminal Aerodrome Forecast
Issued by NWS

Home | Current Version | Previous Version | Graphics & Text | Print | Product List | Glossary On
Versions: 1 2 3 4 5 6 7 8 9 10 11 12 13
000
FTUS45 KGGW 250500
TAFSDY
TAF
KSDY 250520Z 2506/2606 VRB05KT P6SM FEW250
     FM251500 22009KT P6SM SCT250
     FM260300 VRB03KT P6SM FEW250
      AMD LTD TO CLD VIS AND WIND=

USA.gov is the U.S. government's official web portal to all federal, state and local government web resources and services.